Time;durP1;ratioP1;P1;durP2;ratioP2;P2;SDS_P1;SDS_P2;PMS_P1;PMS_P2;Temp;Humidity;BMP_temperature;BMP_pressure;BME280_temperature;BME280_humidity;BME280_pressure;Samples;Min_cycle;Max_cycle;Signal;HPM_P1;HPM_P2
2022/07/24 00:02:13;;;;;;;7.10;6.20;;;15.60;99.90;;;;;;8347428;28;20181;-64
2022/07/24 00:06:14;;;;;;;8.03;6.97;;;15.50;1.00;;;;;;8352206;28;20244;-63
2022/07/24 00:10:15;;;;;;;6.90;6.20;;;15.40;1.00;;;;;;8325327;28;20182;-66
2022/07/24 00:14:16;;;;;;;8.70;7.60;;;15.20;99.90;;;;;;8348916;28;20194;-62
2022/07/24 00:18:17;;;;;;;9.67;8.07;;;15.10;99.90;;;;;;8342848;28;20189;-63
2022/07/24 00:22:18;;;;;;;9.07;7.47;;;15.00;99.90;;;;;;8349470;28;20197;-65
2022/07/24 00:26:18;;;;;;;6.83;6.13;;;14.90;99.90;;;;;;8339978;28;20214;-66
2022/07/24 00:30:19;;;;;;;8.53;7.63;;;14.80;99.90;;;;;;8347849;28;20233;-66
2022/07/24 00:34:20;;;;;;;9.70;8.70;;;14.70;1.00;;;;;;8314079;28;20185;-64
2022/07/24 00:38:21;;;;;;;10.43;8.90;;;14.70;99.90;;;;;;8320494;28;20221;-64
2022/07/24 00:42:22;;;;;;;8.90;8.00;;;14.60;1.00;;;;;;8333071;28;20182;-64
2022/07/24 00:46:23;;;;;;;9.17;8.27;;;14.50;99.90;;;;;;8318491;28;20228;-63
2022/07/24 00:50:25;;;;;;;8.63;7.83;;;14.40;99.90;;;;;;8334621;28;20213;-64
2022/07/24 00:54:25;;;;;;;8.97;8.07;;;14.30;99.90;;;;;;8325028;28;20312;-65
2022/07/24 00:58:26;;;;;;;8.90;8.00;;;14.20;1.00;;;;;;8328506;28;20285;-65
2022/07/24 01:02:27;;;;;;;7.47;6.67;;;14.10;99.90;;;;;;8328549;28;20236;-62
2022/07/24 01:06:28;;;;;;;7.40;6.63;;;13.90;78.30;;;;;;8328420;28;20228;-66
2022/07/24 01:10:29;;;;;;;6.67;6.00;;;13.70;82.30;;;;;;8330780;28;20200;-64
2022/07/24 01:14:32;;;;;;;7.37;6.67;;;13.50;99.90;;;;;;8324430;28;20278;-65
2022/07/24 01:18:34;;;;;;;7.57;6.87;;;13.40;99.90;;;;;;8327156;28;20190;-65
2022/07/24 01:22:34;;;;;;;7.77;6.73;;;13.30;1.00;;;;;;8331106;28;20187;-67
2022/07/24 01:26:35;;;;;;;7.63;6.67;;;13.10;1.00;;;;;;8339640;28;20268;-64
2022/07/24 01:30:36;;;;;;;7.90;7.20;;;13.00;21.50;;;;;;8356169;28;20180;-64
2022/07/24 01:34:37;;;;;;;8.20;7.40;;;13.00;99.90;;;;;;8321685;28;20230;-64
2022/07/24 01:38:38;;;;;;;7.60;6.80;;;12.90;99.90;;;;;;8339121;28;20192;-64
2022/07/24 01:42:39;;;;;;;8.40;7.60;;;12.80;99.90;;;;;;8321516;28;20195;-64
2022/07/24 01:46:39;;;;;;;7.87;7.07;;;12.80;99.90;;;;;;8323191;28;20216;-64
2022/07/24 01:50:40;;;;;;;9.43;8.07;;;12.70;99.90;;;;;;8337964;28;20291;-63
2022/07/24 01:54:41;;;;;;;8.43;7.63;;;12.60;99.90;;;;;;8323423;28;21430;-64
2022/07/24 01:58:42;;;;;;;7.83;7.03;;;12.60;99.90;;;;;;8339884;28;20196;-63
2022/07/24 02:02:44;;;;;;;7.70;6.90;;;12.50;99.90;;;;;;8320451;28;20191;-65
2022/07/24 02:06:45;;;;;;;7.90;7.10;;;12.50;99.90;;;;;;8330796;28;20217;-65
2022/07/24 02:10:48;;;;;;;8.40;7.23;;;12.40;99.90;;;;;;8345835;28;20196;-64
2022/07/24 02:14:49;;;;;;;7.70;6.90;;;12.40;99.90;;;;;;8329581;28;20185;-68
2022/07/24 02:18:50;;;;;;;8.43;7.53;;;12.30;99.90;;;;;;8353757;28;20195;-64
2022/07/24 02:22:51;;;;;;;7.80;7.00;;;12.20;99.90;;;;;;8325319;28;20354;-63
2022/07/24 02:26:52;;;;;;;8.93;7.57;;;12.20;99.90;;;;;;8318907;28;20303;-63
2022/07/24 02:30:54;;;;;;;7.20;6.50;;;12.10;99.90;;;;;;8319301;28;20182;-65
2022/07/24 02:34:55;;;;;;;7.27;6.37;;;12.00;99.90;;;;;;8337379;28;20180;-63
2022/07/24 02:38:55;;;;;;;7.63;6.83;;;11.90;99.90;;;;;;8321208;28;20191;-64
2022/07/24 02:42:56;;;;;;;7.83;7.13;;;11.80;99.90;;;;;;8322010;28;20189;-64
2022/07/24 02:46:57;;;;;;;7.67;6.97;;;11.70;99.90;;;;;;8321288;28;20309;-64
2022/07/24 02:50:59;;;;;;;8.10;7.40;;;11.70;99.90;;;;;;8324308;28;20245;-64
2022/07/24 02:55:00;;;;;;;9.10;7.93;;;11.60;99.90;;;;;;8312411;28;20205;-63
2022/07/24 02:59:00;;;;;;;8.97;8.07;;;11.60;99.90;;;;;;8319648;28;20194;-64
2022/07/24 03:03:01;;;;;;;10.20;8.80;;;11.60;99.90;;;;;;8316204;28;20201;-63
2022/07/24 03:07:02;;;;;;;10.90;9.03;;;11.70;99.90;;;;;;8350217;28;20301;-65
2022/07/24 03:11:03;;;;;;;11.67;9.70;;;11.80;99.90;;;;;;8320504;28;20280;-63
2022/07/24 03:15:05;;;;;;;13.93;9.50;;;11.80;99.90;;;;;;8337365;28;20182;-64
2022/07/24 03:19:05;;;;;;;11.70;8.47;;;11.80;99.90;;;;;;8316790;28;20209;-65
2022/07/24 03:23:06;;;;;;;9.20;8.30;;;11.80;99.90;;;;;;8335476;28;20195;-63
2022/07/24 03:27:07;;;;;;;8.97;8.07;;;11.80;99.90;;;;;;8316528;28;20216;-63
2022/07/24 03:31:08;;;;;;;9.10;8.13;;;11.80;99.90;;;;;;8339143;28;20193;-63
2022/07/24 03:35:09;;;;;;;10.37;8.53;;;11.90;99.90;;;;;;8317217;28;20183;-64
2022/07/24 03:39:10;;;;;;;10.53;9.00;;;11.90;99.90;;;;;;8322358;28;20189;-64
2022/07/24 03:43:11;;;;;;;9.47;8.20;;;12.10;99.90;;;;;;8348789;28;20186;-66
2022/07/24 03:47:11;;;;;;;10.27;9.17;;;12.20;99.90;;;;;;8313200;28;20213;-63
2022/07/24 03:51:12;;;;;;;10.10;8.90;;;12.30;99.90;;;;;;8347712;28;20265;-64
2022/07/24 03:55:13;;;;;;;10.70;9.60;;;12.60;99.90;;;;;;8334226;28;20196;-64
2022/07/24 03:59:14;;;;;;;10.40;9.40;;;13.60;99.90;;;;;;8320895;28;20189;-63
2022/07/24 04:03:14;;;;;;;11.20;7.83;;;14.80;99.90;;;;;;8318261;28;20211;-63
2022/07/24 04:07:15;;;;;;;7.47;6.77;;;15.90;99.90;;;;;;8316476;28;20209;-65
2022/07/24 04:11:16;;;;;;;8.07;6.80;;;16.90;99.90;;;;;;8334538;28;20503;-65
2022/07/24 04:15:17;;;;;;;6.47;5.80;;;17.40;1.00;;;;;;8340952;28;20301;-63
2022/07/24 04:19:18;;;;;;;6.47;5.30;;;17.70;1.00;;;;;;8331381;28;20216;-66
2022/07/24 04:23:19;;;;;;;6.80;5.77;;;18.30;99.90;;;;;;8324847;28;20206;-64
2022/07/24 04:27:19;;;;;;;7.47;5.63;;;18.50;90.00;;;;;;8330697;28;20221;-64
2022/07/24 04:31:21;;;;;;;6.97;5.33;;;18.80;27.30;;;;;;8355573;28;20210;-64
2022/07/24 04:35:22;;;;;;;6.43;5.77;;;19.10;1.00;;;;;;8340169;28;20178;-66
2022/07/24 04:39:22;;;;;;;7.60;6.00;;;19.70;1.00;;;;;;8324763;28;20620;-64
2022/07/24 04:43:23;;;;;;;6.60;5.90;;;19.70;99.90;;;;;;8323363;28;20237;-63
2022/07/24 04:47:24;;;;;;;8.97;5.93;;;19.40;1.00;;;;;;8322699;28;20284;-63
2022/07/24 04:51:25;;;;;;;8.13;5.73;;;19.00;1.00;;;;;;8328258;28;20248;-64
2022/07/24 04:55:25;;;;;;;5.53;5.03;;;19.00;1.00;;;;;;8340123;28;20193;-64
2022/07/24 04:59:26;;;;;;;5.43;4.93;;;19.20;1.00;;;;;;8351997;28;20217;-65
2022/07/24 05:03:27;;;;;;;5.87;4.80;;;19.50;99.90;;;;;;8322325;28;20297;-68
2022/07/24 05:07:28;;;;;;;7.60;4.63;;;19.60;99.90;;;;;;8337628;28;20232;-63
2022/07/24 05:11:29;;;;;;;5.33;4.20;;;19.70;99.90;;;;;;8335577;28;20190;-65
2022/07/24 05:15:30;;;;;;;4.90;4.37;;;19.70;99.90;;;;;;8335188;28;20264;-66
2022/07/24 05:19:31;;;;;;;4.93;4.33;;;19.00;99.90;;;;;;8319546;28;20182;-63
2022/07/24 05:23:32;;;;;;;6.80;4.47;;;18.40;1.00;;;;;;8323515;28;20435;-65
2022/07/24 05:27:32;;;;;;;5.80;4.30;;;18.10;1.00;;;;;;8322559;28;20636;-62
2022/07/24 05:31:33;;;;;;;3.77;3.40;;;18.00;40.80;;;;;;8323435;28;20177;-64
2022/07/24 05:35:34;;;;;;;4.30;3.87;;;18.00;1.00;;;;;;8319075;28;20614;-67
2022/07/24 05:39:35;;;;;;;4.13;3.53;;;18.00;1.00;;;;;;8347715;28;20181;-64
2022/07/24 05:43:36;;;;;;;4.23;2.93;;;17.80;1.00;;;;;;8329706;28;20250;-65
2022/07/24 05:47:44;;;;;;;4.97;2.70;;;17.90;1.00;;;;;;8349569;28;20293;-64
2022/07/24 05:51:44;;;;;;;5.10;2.80;;;17.80;1.00;;;;;;8325717;28;20285;-67
2022/07/24 05:55:45;;;;;;;4.20;2.80;;;17.70;1.00;;;;;;8321232;28;20193;-64
2022/07/24 05:59:46;;;;;;;4.10;2.60;;;17.70;1.00;;;;;;8328914;28;20481;-63
2022/07/24 06:03:47;;;;;;;4.97;2.30;;;17.80;99.90;;;;;;8327105;28;20185;-65
2022/07/24 06:07:47;;;;;;;2.83;2.30;;;17.90;99.90;;;;;;8360533;28;20313;-64
2022/07/24 06:11:48;;;;;;;2.87;2.60;;;18.00;99.90;;;;;;8336046;28;20181;-64
2022/07/24 06:15:49;;;;;;;2.90;2.70;;;18.00;99.90;;;;;;8322723;28;20190;-63
2022/07/24 06:19:50;;;;;;;2.40;2.20;;;18.00;99.90;;;;;;8318433;28;20214;-64
2022/07/24 06:23:50;;;;;;;4.43;2.30;;;18.00;99.90;;;;;;8327628;28;20186;-64
2022/07/24 06:27:53;;;;;;;6.20;2.60;;;18.20;99.90;;;;;;8323019;28;20315;-67
2022/07/24 06:31:54;;;;;;;4.50;2.03;;;18.20;99.90;;;;;;8317823;28;20196;-64
2022/07/24 06:35:55;;;;;;;4.03;2.83;;;18.40;99.90;;;;;;8339822;28;20189;-65
2022/07/24 06:39:56;;;;;;;5.10;2.43;;;18.40;99.90;;;;;;8336303;28;20281;-63
2022/07/24 06:43:59;;;;;;;5.40;2.47;;;18.50;99.90;;;;;;8328551;28;20204;-65
2022/07/24 06:48:00;;;;;;;3.07;2.50;;;18.70;99.90;;;;;;8335713;28;20229;-65
2022/07/24 06:52:01;;;;;;;4.77;2.33;;;18.80;99.90;;;;;;8346073;28;20214;-67
2022/07/24 06:56:02;;;;;;;4.17;2.23;;;19.10;99.90;;;;;;8321339;28;20219;-64
2022/07/24 07:00:06;;;;;;;4.70;2.10;;;19.40;99.90;;;;;;8335632;28;20217;-67
2022/07/24 07:04:07;;;;;;;4.10;1.50;;;19.70;99.90;;;;;;8322413;28;20201;-64
2022/07/24 07:08:07;;;;;;;1.20;1.10;;;20.00;99.20;;;;;;8326615;28;20217;-65
2022/07/24 07:12:11;;;;;;;0.90;0.80;;;20.10;58.50;;;;;;8356902;28;20182;-67
2022/07/24 07:16:12;;;;;;;1.40;0.80;;;20.10;22.30;;;;;;8336542;28;20198;-66
2022/07/24 07:20:13;;;;;;;1.77;0.87;;;20.30;67.30;;;;;;8326155;28;20193;-64
2022/07/24 07:24:14;;;;;;;1.97;1.00;;;20.40;24.40;;;;;;8339840;28;20182;-64
2022/07/24 07:28:16;;;;;;;4.33;0.70;;;20.60;16.90;;;;;;8335742;28;20300;-64
2022/07/24 07:32:16;;;;;;;2.20;0.93;;;20.70;1.00;;;;;;8326611;28;20190;-66
2022/07/24 07:36:17;;;;;;;1.23;0.90;;;20.70;1.00;;;;;;8320553;28;20190;-70
2022/07/24 07:40:18;;;;;;;2.87;0.80;;;20.90;1.00;;;;;;8326654;28;20201;-64
2022/07/24 07:44:19;;;;;;;1.00;0.77;;;20.80;1.00;;;;;;8322555;28;20190;-64
2022/07/24 07:48:20;;;;;;;1.07;0.77;;;20.80;1.00;;;;;;8342914;28;20328;-65
2022/07/24 07:52:21;;;;;;;2.00;0.80;;;20.70;1.00;;;;;;8349600;28;20218;-65
2022/07/24 07:56:21;;;;;;;2.07;0.90;;;20.80;1.00;;;;;;8329988;28;20193;-65
2022/07/24 08:00:22;;;;;;;1.37;0.80;;;20.80;1.00;;;;;;8328206;28;20198;-67
2022/07/24 08:04:24;;;;;;;1.20;0.60;;;21.00;1.00;;;;;;8337239;28;20233;-65
2022/07/24 08:08:25;;;;;;;2.77;0.70;;;21.20;1.00;;;;;;8337630;28;20234;-66
2022/07/24 08:12:26;;;;;;;1.33;0.70;;;21.30;1.00;;;;;;8334936;28;20248;-66
2022/07/24 08:16:27;;;;;;;3.13;1.00;;;21.40;1.00;;;;;;8330081;28;20187;-65
2022/07/24 08:20:28;;;;;;;1.50;0.63;;;21.30;1.00;;;;;;8336549;28;20232;-66
2022/07/24 08:24:32;;;;;;;1.23;0.70;;;21.20;1.00;;;;;;8331384;28;20182;-66
2022/07/24 08:28:32;;;;;;;2.50;0.80;;;21.30;1.00;;;;;;8327570;28;20222;-68
2022/07/24 08:32:34;;;;;;;1.23;0.77;;;21.60;1.00;;;;;;8359423;28;20193;-66
2022/07/24 08:36:34;;;;;;;2.57;0.53;;;21.60;1.00;;;;;;8345621;28;20190;-67
2022/07/24 08:40:38;;;;;;;1.43;0.80;;;21.60;1.00;;;;;;8325959;28;20233;-67
2022/07/24 08:44:39;;;;;;;2.70;0.70;;;21.70;1.00;;;;;;8324236;28;20220;-67
2022/07/24 08:48:43;;;;;;;1.43;0.80;;;21.80;1.00;;;;;;8342659;28;20460;-67
2022/07/24 08:52:44;;;;;;;1.43;0.43;;;21.80;1.00;;;;;;8320968;28;20324;-67
2022/07/24 08:56:45;;;;;;;3.23;0.83;;;21.90;1.00;;;;;;8342737;28;20193;-68
2022/07/24 09:00:46;;;;;;;2.17;0.70;;;22.00;1.00;;;;;;8331489;28;20201;-69
2022/07/24 09:04:49;;;;;;;1.50;0.50;;;22.00;1.00;;;;;;8355023;28;20292;-69
2022/07/24 09:09:02;;;;;;;2.27;0.60;;;22.00;1.00;;;;;;8339960;28;20224;-68
2022/07/24 09:13:17;;;;;;;1.00;0.67;;;22.30;1.00;;;;;;8331456;28;20182;-67
2022/07/24 09:17:20;;;;;;;2.40;1.13;;;22.50;1.00;;;;;;8336681;28;20190;-67
2022/07/24 09:21:21;;;;;;;2.07;0.90;;;22.50;1.00;;;;;;8323519;28;20206;-66
2022/07/24 09:25:27;;;;;;;2.50;0.53;;;22.60;1.00;;;;;;8326810;28;20193;-67
2022/07/24 09:29:29;;;;;;;1.67;0.70;;;22.60;1.00;;;;;;8334461;28;20277;-67
2022/07/24 09:33:36;;;;;;;1.67;0.50;;;22.60;1.00;;;;;;8322574;28;20189;-66
2022/07/24 09:37:37;;;;;;;2.30;0.83;;;22.70;1.00;;;;;;8335231;28;20198;-63
2022/07/24 09:41:52;;;;;;;1.60;0.70;;;22.90;1.00;;;;;;8325679;28;20182;-65
2022/07/24 09:46:15;;;;;;;1.00;0.70;;;22.80;1.00;;;;;;8339026;28;20230;-65
2022/07/24 09:50:17;;;;;;;0.70;0.50;;;23.00;1.00;;;;;;8338880;28;20182;-64
2022/07/24 09:54:31;;;;;;;0.60;0.37;;;23.30;1.00;;;;;;8320068;28;20197;-67
2022/07/24 09:58:34;;;;;;;4.33;1.00;;;23.40;1.00;;;;;;8339007;28;20190;-66
2022/07/24 10:02:36;;;;;;;0.90;0.60;;;23.70;1.00;;;;;;8327677;28;20193;-66
2022/07/24 10:06:38;;;;;;;1.90;0.50;;;23.80;1.00;;;;;;8331047;28;20209;-68
2022/07/24 10:10:43;;;;;;;1.37;0.60;;;23.90;1.00;;;;;;8341336;28;20260;-64
2022/07/24 10:14:46;;;;;;;0.63;0.50;;;23.90;1.00;;;;;;8339850;28;20210;-66
2022/07/24 10:18:49;;;;;;;1.07;0.60;;;24.10;1.00;;;;;;8321811;28;20198;-64
2022/07/24 10:23:02;;;;;;;0.90;0.60;;;24.10;1.00;;;;;;8338749;28;20192;-66
2022/07/24 10:27:04;;;;;;;1.90;0.47;;;23.90;1.00;;;;;;8326888;28;20243;-66
2022/07/24 10:31:08;;;;;;;2.40;0.83;;;24.00;1.00;;;;;;8323022;28;20187;-64
2022/07/24 10:35:21;;;;;;;0.83;0.40;;;24.30;1.00;;;;;;8335273;28;20236;-65
2022/07/24 10:39:43;;;;;;;1.70;0.60;;;24.40;1.00;;;;;;8339164;28;20194;-65
2022/07/24 10:44:14;;;;;;;0.80;0.50;;;24.60;1.00;;;;;;8322159;28;20190;-67
2022/07/24 10:48:21;;;;;;;0.80;0.43;;;24.80;1.00;;;;;;8343174;28;20270;-65
2022/07/24 10:52:28;;;;;;;0.80;0.60;;;25.00;1.00;;;;;;8339608;28;20295;-64
2022/07/24 10:56:35;;;;;;;2.17;0.70;;;24.60;1.00;;;;;;8322189;28;20223;-65
2022/07/24 11:00:48;;;;;;;1.90;1.07;;;24.70;1.00;;;;;;8346564;28;20190;-65
2022/07/24 11:05:29;;;;;;;2.67;1.80;;;24.70;1.00;;;;;;8334296;28;20253;-64
2022/07/24 11:09:30;;;;;;;5.40;3.27;;;24.70;1.00;;;;;;8339111;28;20264;-63
2022/07/24 11:13:31;;;;;;;5.57;2.70;;;24.90;1.00;;;;;;8314851;28;20182;-63
2022/07/24 11:17:43;;;;;;;4.57;2.97;;;25.00;1.00;;;;;;8332677;28;20312;-65
2022/07/24 11:21:47;;;;;;;3.40;2.10;;;25.10;1.00;;;;;;8332316;28;20190;-64
2022/07/24 11:25:48;;;;;;;2.07;1.63;;;25.20;1.00;;;;;;8322029;28;20186;-65
2022/07/24 11:29:53;;;;;;;1.60;1.20;;;25.50;1.00;;;;;;8313801;28;20189;-65
2022/07/24 11:33:55;;;;;;;1.57;1.07;;;25.50;1.00;;;;;;8319062;28;20178;-67
2022/07/24 11:37:56;;;;;;;1.70;1.10;;;25.60;1.00;;;;;;8325195;28;20192;-64
2022/07/24 11:42:00;;;;;;;1.23;1.00;;;25.70;1.00;;;;;;8323574;28;20245;-67
2022/07/24 11:46:01;;;;;;;1.67;0.93;;;25.70;1.00;;;;;;8317931;28;20237;-65
2022/07/24 11:50:04;;;;;;;7.20;6.50;;;25.80;1.00;;;;;;8337355;28;20190;-66
2022/07/24 11:54:05;;;;;;;4.83;1.13;;;26.00;1.00;;;;;;8335948;28;20704;-64
2022/07/24 11:58:06;;;;;;;0.90;0.53;;;26.00;1.00;;;;;;8338400;28;20182;-64
2022/07/24 12:02:09;;;;;;;1.50;0.57;;;26.00;1.00;;;;;;8336657;28;20189;-63
2022/07/24 12:06:14;;;;;;;0.97;0.63;;;26.00;1.00;;;;;;8321132;28;20258;-64
2022/07/24 12:10:20;;;;;;;0.70;0.50;;;26.10;1.00;;;;;;8335115;28;20182;-63
2022/07/24 12:14:21;;;;;;;0.77;0.50;;;26.10;1.00;;;;;;8325443;28;20181;-66
2022/07/24 12:18:22;;;;;;;1.97;1.27;;;26.30;1.00;;;;;;8335241;28;20212;-62
2022/07/24 12:22:25;;;;;;;0.80;0.70;;;26.30;1.00;;;;;;8333854;28;20230;-64
2022/07/24 12:26:26;;;;;;;1.77;0.60;;;26.30;1.00;;;;;;8341262;28;20219;-66
2022/07/24 12:30:31;;;;;;;1.53;1.43;;;26.20;99.90;;;;;;8321855;28;20205;-62
2022/07/24 12:34:46;;;;;;;4.13;1.53;;;26.20;99.90;;;;;;8328537;28;20193;-63
2022/07/24 12:38:51;;;;;;;2.53;1.40;;;26.30;99.90;;;;;;8342120;28;20197;-63
2022/07/24 12:43:09;;;;;;;2.00;1.00;;;26.50;99.90;;;;;;8339757;28;20226;-65
2022/07/24 12:47:10;;;;;;;2.45;0.60;;;26.70;99.90;;;;;;8354243;28;20245;-70
2022/07/24 12:51:12;;;;;;;0.90;0.80;;;26.90;99.90;;;;;;8329262;28;20221;-61
2022/07/24 12:55:20;;;;;;;0.82;0.50;;;26.90;99.90;;;;;;8327927;28;20204;-62
2022/07/24 12:59:27;;;;;;;0.70;0.52;;;26.90;99.90;;;;;;8342707;28;20228;-67
2022/07/24 13:03:28;;;;;;;1.08;0.70;;;26.90;99.90;;;;;;8364444;28;20248;-65
2022/07/24 13:07:29;;;;;;;1.65;0.55;;;27.00;99.90;;;;;;8327135;28;20233;-65
2022/07/24 13:11:29;;;;;;;0.77;0.60;;;27.10;99.90;;;;;;8337935;28;20206;-66
2022/07/24 13:15:30;;;;;;;0.50;0.47;;;27.10;99.90;;;;;;8339052;28;20268;-64
2022/07/24 13:19:32;;;;;;;0.80;0.50;;;26.90;99.90;;;;;;8325538;28;20501;-63
2022/07/24 13:23:33;;;;;;;0.80;0.65;;;26.90;99.90;;;;;;8345956;28;20828;-66
2022/07/24 13:27:34;;;;;;;1.15;0.52;;;26.90;99.90;;;;;;8353850;28;20234;-62
2022/07/24 13:31:35;;;;;;;1.70;0.70;;;27.10;99.90;;;;;;8326049;28;20213;-64
2022/07/24 13:35:36;;;;;;;1.10;0.60;;;27.30;99.90;;;;;;8331862;28;20174;-62
2022/07/24 13:39:39;;;;;;;1.58;0.65;;;27.50;99.90;;;;;;8332983;28;20189;-64
2022/07/24 13:43:40;;;;;;;1.42;0.75;;;27.50;99.90;;;;;;8338644;28;20196;-63
2022/07/24 13:47:41;;;;;;;2.50;0.75;;;27.50;99.90;;;;;;8337089;28;20221;-63
2022/07/24 13:51:42;;;;;;;1.30;0.60;;;27.40;99.90;;;;;;8343672;28;20202;-66
2022/07/24 13:55:43;;;;;;;0.65;0.60;;;27.50;99.90;;;;;;8337293;28;20386;-65
2022/07/24 13:59:43;;;;;;;1.33;0.55;;;27.50;99.90;;;;;;8341230;28;20189;-62
2022/07/24 14:03:45;;;;;;;0.70;0.70;;;27.60;99.90;;;;;;8336783;28;20229;-65
2022/07/24 14:07:45;;;;;;;1.23;0.60;;;27.50;99.90;;;;;;8340810;28;20371;-64
2022/07/24 14:11:46;;;;;;;2.40;0.55;;;27.50;99.90;;;;;;8318872;28;20189;-65
2022/07/24 14:15:47;;;;;;;0.98;0.80;;;27.60;99.90;;;;;;8328512;28;20189;-64
2022/07/24 14:19:48;;;;;;;2.05;0.65;;;27.80;99.90;;;;;;8318358;28;20552;-65
2022/07/24 14:23:49;;;;;;;2.00;0.70;;;27.90;99.90;;;;;;8327152;28;20209;-63
2022/07/24 14:27:50;;;;;;;1.33;0.70;;;27.70;99.90;;;;;;8352588;28;20249;-62
2022/07/24 14:31:51;;;;;;;1.63;0.60;;;27.50;99.90;;;;;;8333720;28;20222;-61
2022/07/24 14:35:52;;;;;;;0.85;0.43;;;27.50;99.90;;;;;;8322514;28;20178;-67
2022/07/24 14:39:53;;;;;;;0.93;0.70;;;27.60;99.90;;;;;;8321980;28;20190;-63
2022/07/24 14:43:54;;;;;;;1.08;0.98;;;27.60;99.90;;;;;;8312487;28;20186;-66
2022/07/24 14:47:55;;;;;;;0.82;0.50;;;27.80;99.90;;;;;;8338041;28;20638;-60
2022/07/24 14:51:55;;;;;;;1.00;0.80;;;27.80;99.90;;;;;;8319874;28;20197;-62
2022/07/24 14:55:56;;;;;;;2.15;0.60;;;27.90;99.90;;;;;;8333872;28;20178;-62
2022/07/24 14:59:57;;;;;;;1.20;0.70;;;27.90;99.90;;;;;;8338424;28;20202;-62
2022/07/24 15:04:01;;;;;;;1.15;0.82;;;27.90;99.90;;;;;;8326084;28;20192;-64
2022/07/24 15:08:02;;;;;;;1.02;0.63;;;27.80;99.90;;;;;;8322039;28;20209;-60
2022/07/24 15:12:03;;;;;;;0.95;0.60;;;27.80;99.90;;;;;;8319816;28;20182;-62
2022/07/24 15:16:04;;;;;;;2.83;0.70;;;27.70;99.90;;;;;;8323725;28;20195;-64
2022/07/24 15:20:05;;;;;;;3.45;0.57;;;27.90;99.90;;;;;;8350310;28;20189;-65
2022/07/24 15:24:07;;;;;;;2.65;0.77;;;27.90;99.90;;;;;;8320603;28;20190;-62
2022/07/24 15:28:08;;;;;;;1.58;0.82;;;27.80;99.90;;;;;;8317719;28;20216;-61
2022/07/24 15:32:08;;;;;;;1.45;0.60;;;27.90;99.90;;;;;;8334081;28;20183;-62
2022/07/24 15:36:10;;;;;;;0.90;0.70;;;28.00;99.90;;;;;;8349679;28;20194;-61
2022/07/24 15:40:11;;;;;;;0.88;0.75;;;28.10;99.90;;;;;;8332402;28;20185;-66
2022/07/24 15:44:11;;;;;;;2.33;0.82;;;28.00;99.90;;;;;;8349830;28;20194;-62
2022/07/24 15:48:12;;;;;;;1.35;0.70;;;28.10;99.90;;;;;;8334440;28;20256;-61
2022/07/24 15:52:13;;;;;;;2.83;0.90;;;28.10;99.90;;;;;;8326032;28;20216;-61
2022/07/24 15:56:14;;;;;;;1.02;0.80;;;28.00;99.90;;;;;;8320287;28;20194;-66
2022/07/24 16:00:16;;;;;;;1.50;0.90;;;28.00;99.90;;;;;;8315457;28;20186;-62
2022/07/24 16:04:17;;;;;;;2.40;0.60;;;27.90;99.90;;;;;;8329898;28;20191;-66
2022/07/24 16:08:18;;;;;;;1.33;0.60;;;28.00;99.90;;;;;;8334975;28;20259;-63
2022/07/24 16:12:18;;;;;;;1.00;0.77;;;27.90;99.90;;;;;;8325382;28;20251;-62
2022/07/24 16:16:19;;;;;;;2.80;0.90;;;28.00;99.90;;;;;;8339734;28;20175;-65
2022/07/24 16:20:20;;;;;;;0.75;0.70;;;27.80;99.90;;;;;;8323534;28;20189;-61
2022/07/24 16:24:21;;;;;;;1.20;0.93;;;27.70;99.90;;;;;;8324855;28;20228;-61
2022/07/24 16:28:21;;;;;;;1.13;0.80;;;27.60;99.90;;;;;;8324392;28;20300;-67
2022/07/24 16:32:23;;;;;;;2.60;0.95;;;27.70;99.90;;;;;;8324090;28;20186;-62
2022/07/24 16:36:25;;;;;;;1.02;0.90;;;27.70;99.90;;;;;;8316282;28;20182;-61
2022/07/24 16:40:26;;;;;;;1.60;0.65;;;27.90;99.90;;;;;;8336736;28;20190;-65
2022/07/24 16:44:26;;;;;;;0.77;0.63;;;27.80;99.90;;;;;;8328836;28;20480;-66
2022/07/24 16:48:27;;;;;;;0.85;0.70;;;27.70;99.90;;;;;;8328641;28;20213;-65
2022/07/24 16:52:28;;;;;;;1.23;0.85;;;27.60;99.90;;;;;;8324833;28;20218;-65
2022/07/24 16:56:29;;;;;;;0.90;0.75;;;27.40;99.90;;;;;;8336110;28;20187;-64
2022/07/24 17:00:30;;;;;;;1.33;0.90;;;27.30;99.90;;;;;;8333297;28;20247;-62
2022/07/24 17:04:30;;;;;;;1.08;0.85;;;27.30;99.90;;;;;;8323737;28;20189;-61
2022/07/24 17:08:31;;;;;;;1.95;0.75;;;27.40;99.90;;;;;;8313221;28;20233;-64
2022/07/24 17:12:32;;;;;;;0.82;0.63;;;27.20;99.90;;;;;;8331282;28;20182;-63
2022/07/24 17:16:33;;;;;;;0.60;0.60;;;27.10;99.90;;;;;;8318972;28;20199;-64
2022/07/24 17:20:36;;;;;;;1.05;0.63;;;27.10;99.90;;;;;;8317563;28;20186;-63
2022/07/24 17:24:37;;;;;;;1.40;0.70;;;27.10;99.90;;;;;;8333255;28;20198;-62
2022/07/24 17:28:38;;;;;;;2.10;0.70;;;27.10;99.90;;;;;;8343088;28;20214;-65
2022/07/24 17:32:38;;;;;;;2.30;0.80;;;27.20;99.90;;;;;;8339390;28;20217;-67
2022/07/24 17:36:39;;;;;;;1.35;0.90;;;27.60;99.90;;;;;;8339090;28;20210;-64
2022/07/24 17:40:40;;;;;;;1.10;0.70;;;28.50;99.90;;;;;;8354581;28;20181;-64
2022/07/24 17:44:41;;;;;;;1.38;0.70;;;29.60;99.90;;;;;;8337304;28;20192;-62
2022/07/24 17:48:42;;;;;;;1.00;0.70;;;30.60;99.90;;;;;;8342179;28;20214;-63
2022/07/24 17:52:44;;;;;;;1.52;1.20;;;31.00;99.90;;;;;;8355539;28;20213;-69
2022/07/24 17:56:44;;;;;;;3.05;1.00;;;31.20;99.90;;;;;;8325937;28;20178;-61
2022/07/24 18:00:45;;;;;;;2.65;1.38;;;31.40;99.90;;;;;;8319728;28;20204;-64
2022/07/24 18:04:46;;;;;;;0.90;0.55;;;31.40;99.90;;;;;;8340018;28;20188;-64
2022/07/24 18:08:47;;;;;;;2.05;1.08;;;31.40;99.90;;;;;;8328018;28;20308;-65
2022/07/24 18:12:50;;;;;;;0.80;0.73;;;31.30;99.90;;;;;;8329005;28;20277;-66
2022/07/24 18:16:51;;;;;;;2.45;1.10;;;30.90;99.90;;;;;;8322154;28;20193;-68
2022/07/24 18:20:52;;;;;;;0.88;0.80;;;30.40;99.90;;;;;;8336473;28;20187;-66
2022/07/24 18:24:53;;;;;;;0.93;0.70;;;30.20;99.90;;;;;;8342675;28;20186;-66
2022/07/24 18:28:54;;;;;;;2.63;1.38;;;30.30;99.90;;;;;;8327303;28;20212;-67
2022/07/24 18:32:55;;;;;;;1.75;1.20;;;30.50;99.90;;;;;;8328889;28;20192;-61
2022/07/24 18:36:56;;;;;;;2.97;0.68;;;30.40;99.90;;;;;;8323761;28;20339;-68
2022/07/24 18:40:56;;;;;;;0.82;0.65;;;30.10;99.90;;;;;;8318143;28;20271;-67
2022/07/24 18:44:57;;;;;;;2.10;0.80;;;29.00;99.90;;;;;;8325080;28;20193;-68
2022/07/24 18:48:58;;;;;;;1.98;0.80;;;28.00;99.90;;;;;;8338192;28;20222;-66
2022/07/24 18:52:59;;;;;;;0.60;0.55;;;26.90;99.90;;;;;;8334833;28;20221;-69
2022/07/24 18:57:00;;;;;;;2.00;0.70;;;25.90;99.90;;;;;;8320839;28;20252;-66
2022/07/24 19:01:01;;;;;;;1.50;0.80;;;25.10;1.00;;;;;;8337559;28;20245;-64
2022/07/24 19:05:02;;;;;;;1.10;0.80;;;24.40;1.00;;;;;;8313667;28;20281;-65
2022/07/24 19:09:03;;;;;;;0.87;0.63;;;23.70;1.00;;;;;;8352717;28;20234;-67
2022/07/24 19:13:04;;;;;;;0.97;0.60;;;23.20;1.00;;;;;;8356176;28;20182;-66
2022/07/24 19:17:05;;;;;;;1.07;0.70;;;22.80;1.00;;;;;;8342526;28;20192;-65
2022/07/24 19:21:06;;;;;;;3.03;0.70;;;22.40;1.00;;;;;;8339128;28;20189;-66
2022/07/24 19:25:07;;;;;;;0.97;0.70;;;22.10;1.00;;;;;;8319625;28;20194;-68
2022/07/24 19:29:08;;;;;;;1.73;1.07;;;21.80;1.00;;;;;;8319166;28;20208;-67
2022/07/24 19:33:09;;;;;;;3.40;1.23;;;21.50;1.00;;;;;;8310272;28;20606;-64
2022/07/24 19:37:10;;;;;;;2.47;1.00;;;21.30;1.00;;;;;;8324745;28;20273;-66
2022/07/24 19:41:11;;;;;;;2.50;0.77;;;21.00;1.00;;;;;;8328597;28;20233;-66
2022/07/24 19:45:12;;;;;;;1.60;1.00;;;20.70;1.00;;;;;;8329841;28;20261;-65
2022/07/24 19:49:13;;;;;;;1.13;0.77;;;20.40;1.00;;;;;;8336646;28;20213;-65
2022/07/24 19:53:14;;;;;;;1.83;0.90;;;20.20;1.00;;;;;;8330833;28;20217;-63
2022/07/24 19:57:16;;;;;;;2.30;1.03;;;20.00;1.00;;;;;;8321645;28;20191;-65
2022/07/24 20:01:17;;;;;;;2.63;1.07;;;19.80;1.00;;;;;;8335289;28;20217;-65
2022/07/24 20:05:18;;;;;;;1.23;0.90;;;19.60;1.00;;;;;;8335540;28;20186;-66
2022/07/24 20:09:19;;;;;;;1.03;0.93;;;19.50;1.00;;;;;;8336466;28;20564;-67
2022/07/24 20:13:19;;;;;;;1.30;1.00;;;19.30;1.30;;;;;;8312390;28;20783;-69
2022/07/24 20:17:20;;;;;;;1.07;0.97;;;19.10;1.00;;;;;;8333738;28;20252;-64
2022/07/24 20:21:21;;;;;;;1.80;0.83;;;19.00;1.10;;;;;;8319902;28;20389;-67
2022/07/24 20:25:22;;;;;;;1.10;0.90;;;18.80;15.20;;;;;;8333699;28;20194;-68
2022/07/24 20:29:23;;;;;;;0.90;0.90;;;18.60;26.80;;;;;;8317297;28;20214;-68
2022/07/24 20:33:24;;;;;;;1.70;1.20;;;18.50;35.10;;;;;;8347593;28;20204;-67
2022/07/24 20:37:26;;;;;;;1.53;1.17;;;18.40;91.40;;;;;;8329574;28;20193;-69
2022/07/24 20:41:27;;;;;;;0.90;0.70;;;18.10;99.90;;;;;;8347254;28;20559;-68
2022/07/24 20:45:29;;;;;;;1.40;0.87;;;18.00;99.90;;;;;;8312120;28;20592;-68
2022/07/24 20:49:30;;;;;;;1.40;0.67;;;17.80;99.90;;;;;;8330364;28;20217;-68
2022/07/24 20:53:31;;;;;;;0.93;0.83;;;17.70;99.90;;;;;;8329250;28;20560;-65
2022/07/24 20:57:32;;;;;;;1.13;0.90;;;17.60;99.90;;;;;;8330135;28;20193;-68
2022/07/24 21:01:33;;;;;;;2.87;0.87;;;17.40;99.90;;;;;;8337581;28;20181;-70
2022/07/24 21:05:34;;;;;;;1.20;0.83;;;17.30;99.90;;;;;;8340132;28;20189;-70